Latest Weather Observations for Darwin Airport

IDD60801

Issued at 1:31 pm CST Saturday 25 February 2017 (issued every 30 minutes, with the page automatically refreshed every 10 minutes)

About weather observations | Map of weather stations | Latest weather observations for NT | Other Formats
Station Details ID: 014015 Name: DARWIN AIRPORT Lat: -12.42 Lon: 130.89 Height: 30.4 m
Data from the previous 72 hours. | See also: Recent months at Darwin Airport
Date/Time
CST
Temp
°C
App
Temp
°C
Dew
Point
°C
Rel
Hum
%
Delta-T
°C
Wind Press
QNH
hPa
Press
MSL
hPa
Rain since
9am
mm
Dir  Spd
km/h
Gust
km/h
Spd
kts
Gust
kts
25/01:00pm 28.4 33.8 23.9 76 3.1 SE 2 6 1 3 1010.2 1010.0 15.4
25/12:30pm 26.1 31.1 24.5 91 1.1 NNW 6 13 3 7 1010.7 1010.5 12.6
25/12:21pm 26.5 31.2 24.9 91 1.1 WNW 9 13 5 7 1011.0 1010.8 8.0
25/12:12pm 27.7 31.9 24.8 84 2.0 WNW 11 15 6 8 1010.9 1010.7 1.6
25/12:00pm 28.7 32.9 24.7 79 2.8 WNW 11 17 6 9 1010.9 1010.7 0.0
25/11:30am 29.8 33.7 24.2 72 3.9 W 11 15 6 8 1011.4 1011.2 0.0
25/11:00am 30.5 35.1 24.2 69 4.4 W 7 11 4 6 1011.7 1011.5 0.0
25/10:30am 30.0 35.3 24.3 71 4.0 W 4 7 2 4 1011.9 1011.7 0.0
25/10:00am 30.3 35.4 24.6 71 4.0 SW 6 7 3 4 1012.1 1011.9 0.0
25/09:30am 29.5 36.0 25.1 77 3.1 CALM 0 0 0 0 1012.0 1011.8 0.0
25/09:00am 28.4 34.5 25.1 82 2.3 N 2 4 1 2 1011.9 1011.7 0.0
25/08:30am 27.6 34.4 25.6 89 1.4 CALM 0 0 0 0 1011.5 1011.3 0.0
25/08:00am 26.6 33.0 25.5 94 0.8 ENE 2 4 1 2 1011.3 1011.1 0.0
25/07:30am 25.8 31.9 25.1 96 0.5 E 2 4 1 2 1011.0 1010.8 0.0
25/07:00am 25.3 31.2 24.7 96 0.4 E 2 2 1 1 1010.8 1010.6 0.0
25/06:30am 25.3 31.1 24.6 96 0.5 ENE 2 6 1 3 1010.4 1010.2 0.0
25/06:00am 25.4 31.7 24.7 96 0.5 CALM 0 0 0 0 1010.1 1009.9 0.0
25/05:30am 25.5 31.8 24.8 96 0.5 CALM 0 0 0 0 1009.8 1009.6 0.0
25/05:00am 25.4 31.7 24.7 96 0.5 CALM 0 6 0 3 1009.6 1009.4 0.0
25/04:30am 25.6 32.0 24.9 96 0.5 CALM 0 0 0 0 1009.3 1009.0 0.0
25/04:00am 25.7 31.7 24.8 95 0.6 ESE 2 4 1 2 1009.1 1008.8 0.0
25/03:30am 25.7 32.0 24.8 95 0.6 CALM 0 0 0 0 1009.1 1008.8 0.0
25/03:00am 25.8 31.3 24.6 93 0.8 NNE 4 6 2 3 1009.3 1009.0 0.0
25/02:30am 25.9 31.4 24.6 92 0.9 NNW 4 6 2 3 1009.7 1009.5 0.0
25/02:00am 26.1 31.7 24.8 92 0.9 NNW 4 4 2 2 1010.1 1009.9 0.0
25/01:30am 26.2 31.2 24.8 92 1.0 NNW 7 11 4 6 1010.5 1010.3 0.0
25/01:00am 26.5 31.8 25.2 92 0.9 NW 7 11 4 6 1010.7 1010.5 0.0
25/12:30am 26.6 32.4 25.2 92 1.0 WNW 4 6 2 3 1010.9 1010.7 0.0
25/12:00am 26.9 33.1 25.2 90 1.2 WNW 2 4 1 2 1011.0 1010.8 0.0
 
Date/Time
CST
Temp
°C
App
Temp
°C
Dew
Point
°C
Rel
Hum
%
Delta-T
°C
Wind Press
QNH
hPa
Press
MSL
hPa
Rain since
9am
mm
Dir  Spd
km/h
Gust
km/h
Spd
kts
Gust
kts
24/11:30pm 27.2 33.0 25.1 88 1.5 WNW 4 7 2 4 1011.2 1011.0 0.0
24/11:00pm 27.9 33.0 24.9 84 2.1 NW 7 11 4 6 1010.9 1010.7 0.0
24/10:30pm 28.2 33.2 24.8 82 2.4 NW 7 9 4 5 1010.5 1010.3 0.0
24/10:00pm 28.2 33.0 25.1 83 2.2 NNW 9 13 5 7 1010.2 1010.0 0.0
24/09:30pm 27.7 32.1 25.0 85 1.9 NNW 11 13 6 7 1010.1 1009.9 0.0
24/09:00pm 27.7 32.6 24.7 84 2.1 NNW 7 9 4 5 1010.0 1009.8 0.0
24/08:30pm 27.7 32.7 24.8 84 2.0 N 7 9 4 5 1009.9 1009.7 0.0
24/08:00pm 28.0 32.7 24.9 83 2.2 NNW 9 11 5 6 1009.6 1009.4 0.0
24/07:30pm 28.2 32.9 24.9 82 2.3 N 9 13 5 7 1009.7 1009.5 0.0
24/07:00pm 29.4 32.5 23.6 71 4.0 NNW 13 17 7 9 1009.6 1009.4 0.0
24/06:30pm 29.7 32.5 23.6 69 4.2 NW 15 19 8 10 1009.2 1008.9 0.0
24/06:00pm 29.8 32.6 23.6 69 4.3 NW 15 19 8 10 1008.8 1008.5 0.0
24/05:30pm 30.4 32.8 23.0 64 5.1 NW 15 19 8 10 1008.6 1008.3 0.0
24/05:00pm 30.8 33.2 22.9 62 5.4 NW 15 20 8 11 1008.7 1008.4 0.0
24/04:30pm 30.8 34.1 24.5 69 4.4 WNW 15 19 8 10 1008.4 1008.1 0.0
24/04:00pm 31.0 35.0 24.4 68 4.6 NW 11 17 6 9 1008.5 1008.2 0.0
24/03:30pm 31.0 35.2 24.7 69 4.4 NW 11 17 6 9 1008.4 1008.1 0.0
24/03:00pm 30.6 34.0 24.1 68 4.5 NNW 13 17 7 9 1008.8 1008.5 0.0
24/02:30pm 30.6 34.5 24.3 69 4.4 NNW 11 17 6 9 1009.1 1008.8 0.0
24/02:00pm 30.8 34.5 23.9 66 4.8 NNW 11 24 6 13 1009.4 1009.1 0.0
24/01:30pm 31.3 35.1 24.1 65 5.0 NNW 11 26 6 14 1009.9 1009.7 0.0
24/01:00pm 31.1 35.4 24.2 66 4.8 NW 9 17 5 9 1010.3 1010.1 0.0
24/12:30pm 31.1 35.1 23.8 65 5.1 NW 9 15 5 8 1010.9 1010.7 0.0
24/12:00pm 31.3 36.1 24.4 66 4.8 NW 7 11 4 6 1011.3 1011.1 0.0
24/11:30am 30.5 34.4 23.6 66 4.8 NNW 9 13 5 7 1011.6 1011.4 0.0
24/11:00am 30.3 35.2 25.3 74 3.5 NNW 9 15 5 8 1011.7 1011.5 0.0
24/10:30am 29.9 35.3 25.5 77 3.1 N 7 13 4 7 1011.8 1011.6 0.0
24/10:00am 30.2 35.4 25.7 77 3.2 NNW 9 13 5 7 1011.8 1011.6 0.0
24/09:30am 29.6 34.9 25.8 80 2.7 N 9 17 5 9 1011.8 1011.6 0.0
24/09:00am 29.4 34.7 25.3 78 2.9 NNW 7 9 4 5 1011.6 1011.4 0.0
24/08:30am 29.3 34.4 25.0 77 3.0 NW 7 9 4 5 1011.5 1011.3 0.0
24/08:00am 28.8 34.2 25.2 81 2.5 WSW 6 7 3 4 1011.0 1010.8 0.0
24/07:30am 28.5 33.9 25.4 83 2.2 WNW 7 11 4 6 1010.9 1010.7 0.0
24/07:00am 28.3 32.9 25.3 84 2.1 WNW 11 13 6 7 1010.6 1010.4 0.0
24/06:30am 28.4 32.6 25.3 83 2.2 WNW 13 17 7 9 1010.2 1010.0 0.0
24/06:00am 28.4 32.1 25.1 82 2.3 WNW 15 19 8 10 1009.7 1009.5 0.0
24/05:30am 28.4 31.4 25.3 83 2.2 WNW 19 24 10 13 1008.9 1008.6 0.0
24/05:00am 28.5 31.5 25.2 82 2.3 WNW 19 24 10 13 1008.8 1008.5 0.0
24/04:30am 28.5 31.5 25.2 82 2.3 WNW 19 22 10 12 1009.0 1008.7 0.0
24/04:00am 28.5 31.6 25.4 83 2.2 WNW 19 26 10 14 1008.7 1008.4 0.0
24/03:30am 28.6 31.8 25.0 81 2.5 WNW 17 20 9 11 1008.4 1008.1 0.0
24/03:00am 28.7 31.7 25.3 82 2.4 NW 19 22 10 12 1008.7 1008.4 0.0
24/02:30am 28.7 32.1 25.3 82 2.4 NW 17 22 9 12 1008.9 1008.6 0.0
24/02:00am 28.8 32.5 25.7 83 2.2 WNW 17 24 9 13 1009.0 1008.7 0.0
24/01:30am 28.9 32.0 25.4 81 2.5 WNW 19 22 10 12 1009.1 1008.8 0.0
24/01:00am 28.9 32.6 25.7 83 2.3 WNW 17 22 9 12 1009.5 1009.3 0.0
24/12:30am 29.1 32.5 25.3 80 2.7 WNW 17 20 9 11 1009.8 1009.6 0.0
24/12:00am 29.2 32.6 25.2 79 2.8 WNW 17 20 9 11 1009.9 1009.7 0.0
 
Date/Time
CST
Temp
°C
App
Temp
°C
Dew
Point
°C
Rel
Hum
%
Delta-T
°C
Wind Press
QNH
hPa
Press
MSL
hPa
Rain since
9am
mm
Dir  Spd
km/h
Gust
km/h
Spd
kts
Gust
kts
23/11:30pm 29.2 33.1 25.4 80 2.7 WNW 15 19 8 10 1010.1 1009.9 0.0
23/11:00pm 29.2 33.4 25.4 80 2.7 WNW 13 17 7 9 1009.9 1009.7 0.0
23/10:30pm 29.1 33.7 25.4 80 2.6 WNW 11 13 6 7 1009.5 1009.3 0.0
23/10:00pm 29.1 33.3 25.3 80 2.7 W 13 17 7 9 1009.2 1008.9 0.0
23/09:30pm 29.2 33.3 25.2 79 2.8 W 13 19 7 10 1008.9 1008.6 0.0
23/09:00pm 29.2 33.7 25.2 79 2.8 W 11 15 6 8 1008.5 1008.2 0.0
23/08:30pm 29.3 33.0 25.2 78 2.9 W 15 19 8 10 1008.2 1007.9 0.0
23/08:00pm 29.9 34.2 24.9 74 3.5 WNW 11 15 6 8 1008.2 1007.9 0.0
23/07:30pm 29.9 33.9 25.1 75 3.4 W 13 17 7 9 1007.7 1007.4 0.0
23/07:00pm 30.5 34.5 25.0 72 3.9 W 13 17 7 9 1007.3 1007.0 0.0
23/06:30pm 31.5 35.3 24.7 67 4.8 W 13 19 7 10 1007.0 1006.7 0.0
23/06:00pm 31.9 34.8 24.5 65 5.2 WNW 17 22 9 12 1006.7 1006.4 0.0
23/05:30pm 32.0 34.5 25.4 68 4.7 WNW 22 26 12 14 1006.5 1006.2 0.0
23/05:00pm 32.1 33.9 25.5 68 4.7 WNW 26 30 14 16 1006.3 1006.0 0.0
23/04:30pm 32.7 34.9 26.0 68 4.8 NW 26 32 14 17 1006.3 1006.0 0.0
23/04:00pm 33.2 35.6 25.8 65 5.3 WNW 24 30 13 16 1006.2 1005.9 0.0
23/03:30pm 33.1 34.9 25.5 64 5.4 WNW 26 30 14 16 1006.3 1006.0 0.0
23/03:00pm 33.3 35.4 25.3 63 5.7 WNW 24 30 13 16 1006.5 1006.2 0.0
23/02:30pm 33.6 35.7 24.7 59 6.3 WNW 22 26 12 14 1006.8 1006.5 0.0
23/02:00pm 33.6 35.9 24.5 59 6.4 WNW 20 22 11 12 1007.3 1007.0 0.0
23/01:30pm 34.6 34.4 18.6 38 10.5 WNW 17 22 9 12 1007.8 1007.5 0.0
23/01:00pm 34.2 35.1 20.0 43 9.5 WNW 15 20 8 11 1008.1 1007.8 0.0
23/12:30pm 34.1 35.8 20.9 46 8.9 W 13 19 7 10 1008.8 1008.5 0.0
23/12:00pm 33.1 35.4 22.0 52 7.6 WNW 13 15 7 8 1009.2 1008.9 0.0
23/11:30am 32.4 35.3 22.5 56 6.8 WSW 11 15 6 8 1009.6 1009.4 0.0
23/11:00am 31.3 34.6 23.2 62 5.6 WSW 11 19 6 10 1010.1 1009.9 0.0
23/10:30am 31.1 34.5 23.3 63 5.4 WSW 11 19 6 10 1010.3 1010.1 0.0
23/10:00am 30.6 33.5 22.4 61 5.6 WSW 11 15 6 8 1010.4 1010.2 0.0
23/09:30am 30.5 34.0 23.6 66 4.8 W 11 13 6 7 1010.4 1010.2 0.0
23/09:00am 29.3 32.7 24.0 73 3.7 WSW 13 17 7 9 1010.4 1010.2 0.0
23/08:30am 28.8 33.4 24.7 78 2.9 WSW 9 11 5 6 1010.3 1010.1 0.0
23/08:00am 28.0 32.4 24.4 81 2.5 SW 9 11 5 6 1009.9 1009.7 0.0
23/07:30am 27.2 31.5 24.3 84 2.0 SW 9 11 5 6 1009.7 1009.5 0.0
23/07:00am 26.2 30.9 24.3 89 1.3 SW 7 9 4 5 1009.5 1009.3 0.0
23/06:30am 26.2 30.9 24.3 89 1.3 SSW 7 11 4 6 1009.4 1009.1 0.0
23/06:00am 26.3 31.0 24.3 89 1.4 SW 7 9 4 5 1009.1 1008.8 0.0
23/05:30am 26.5 31.0 24.0 86 1.7 SW 7 9 4 5 1008.9 1008.6 0.0
23/05:00am 26.5 31.2 24.0 86 1.7 WSW 6 7 3 4 1008.9 1008.6 0.0
23/04:30am 26.2 30.9 24.0 88 1.5 WSW 6 7 3 4 1008.8 1008.5 0.0
23/04:00am 26.3 30.8 24.0 87 1.6 SW 7 9 4 5 1008.6 1008.3 0.0
23/03:30am 26.7 31.4 23.9 84 1.9 WSW 6 7 3 4 1008.3 1008.0 0.0
23/03:00am 26.2 30.8 24.2 89 1.4 WSW 7 11 4 6 1008.3 1008.0 0.0
23/02:30am 27.1 31.7 23.8 82 2.3 WSW 6 9 3 5 1008.4 1008.1 0.0
23/02:00am 27.2 31.8 24.2 84 2.1 WSW 7 9 4 5 1008.8 1008.5 0.0
23/01:30am 27.3 31.9 24.1 83 2.2 WSW 7 11 4 6 1009.3 1009.0 0.0
23/01:00am 27.4 31.9 23.9 81 2.4 WSW 7 9 4 5 1009.8 1009.6 0.0
23/12:30am 27.7 31.7 23.8 79 2.7 WSW 9 11 5 6 1010.3 1010.1 0.0
23/12:00am 27.9 31.5 23.8 78 2.8 WSW 11 13 6 7 1010.7 1010.5 0.0
 
Date/Time
CST
Temp
°C
App
Temp
°C
Dew
Point
°C
Rel
Hum
%
Delta-T
°C
Wind Press
QNH
hPa
Press
MSL
hPa
Rain since
9am
mm
Dir  Spd
km/h
Gust
km/h
Spd
kts
Gust
kts
22/11:30pm 28.0 32.6 24.1 79 2.7 WSW 7 9 4 5 1011.0 1010.8 0.0
22/11:00pm 28.1 32.3 24.1 79 2.8 WSW 9 11 5 6 1010.8 1010.6 0.0
22/10:30pm 28.3 32.6 24.3 79 2.8 WSW 9 13 5 7 1010.7 1010.5 0.0
22/10:00pm 28.5 32.2 24.5 79 2.8 WSW 13 20 7 11 1010.5 1010.3 0.0
22/09:30pm 28.7 32.7 24.4 77 3.0 WSW 11 15 6 8 1010.3 1010.1 0.0
22/09:00pm 28.9 32.7 24.1 75 3.3 WSW 11 17 6 9 1010.0 1009.8 0.0
22/08:30pm 29.1 32.6 24.2 75 3.4 WSW 13 20 7 11 1009.7 1009.5 0.0
22/08:00pm 29.1 32.5 24.1 74 3.5 W 13 19 7 10 1009.4 1009.1 0.0
22/07:30pm 29.4 31.6 23.3 69 4.2 W 17 22 9 12 1009.0 1008.7 0.0
22/07:00pm 29.9 32.6 23.4 68 4.5 W 15 20 8 11 1008.8 1008.5 0.0
22/06:30pm 30.7 32.7 23.0 63 5.3 W 17 24 9 13 1008.4 1008.1 0.0
22/06:00pm 31.6 33.4 23.5 62 5.6 WNW 20 28 11 15 1008.1 1007.8 0.0
22/05:30pm 31.4 33.2 23.5 63 5.5 W 20 28 11 15 1007.8 1007.5 0.0
22/05:00pm 32.5 34.3 24.2 61 5.8 WNW 22 28 12 15 1007.8 1007.5 0.0
22/04:30pm 32.5 33.7 23.9 60 6.0 WNW 24 32 13 17 1007.8 1007.5 0.0
22/04:00pm 33.0 34.2 24.5 61 6.0 WNW 26 32 14 17 1007.9 1007.6 0.0
22/03:30pm 33.1 34.1 24.1 59 6.3 WNW 26 32 14 17 1008.1 1007.8 0.0
22/03:00pm 33.2 34.3 24.4 60 6.2 WNW 26 32 14 17 1008.3 1008.0 0.0
22/02:30pm 33.1 34.4 24.1 59 6.3 WNW 24 30 13 16 1008.5 1008.2 0.0
22/02:00pm 33.1 34.1 23.5 57 6.7 WNW 24 30 13 16 1008.9 1008.6 0.0

Other Formats:

Comma delimited format used in spreadsheet applications
http://www.bom.gov.au/fwo/IDD60801/IDD60801.94120.axf

JavaScript Object Notation format (JSON) in row-major order
http://www.bom.gov.au/fwo/IDD60801/IDD60801.94120.json